sensor_id;sensor_type;location;lat;lon;timestamp;P1;durP1;ratioP1;P2;durP2;ratioP2
66966;SDS011;53900;51.468;-2.586;2022-08-19T00:01:45;2.33;;;0.35;;
66966;SDS011;53900;51.468;-2.586;2022-08-19T00:04:13;0.47;;;0.32;;
66966;SDS011;53900;51.468;-2.586;2022-08-19T00:06:41;0.73;;;0.38;;
66966;SDS011;53900;51.468;-2.586;2022-08-19T00:09:10;0.40;;;0.20;;
66966;SDS011;53900;51.468;-2.586;2022-08-19T00:11:37;1.20;;;0.60;;
66966;SDS011;53900;51.468;-2.586;2022-08-19T00:14:04;1.20;;;0.40;;
66966;SDS011;53900;51.468;-2.586;2022-08-19T00:16:31;1.23;;;0.50;;
66966;SDS011;53900;51.468;-2.586;2022-08-19T00:18:57;3.20;;;0.80;;
66966;SDS011;53900;51.468;-2.586;2022-08-19T00:21:33;2.92;;;1.05;;
66966;SDS011;53900;51.468;-2.586;2022-08-19T00:24:05;3.78;;;0.70;;
66966;SDS011;53900;51.468;-2.586;2022-08-19T00:26:35;5.35;;;1.10;;
66966;SDS011;53900;51.468;-2.586;2022-08-19T00:29:10;2.03;;;0.73;;
66966;SDS011;53900;51.468;-2.586;2022-08-19T00:31:36;4.60;;;0.90;;
66966;SDS011;53900;51.468;-2.586;2022-08-19T00:34:03;5.53;;;0.82;;
66966;SDS011;53900;51.468;-2.586;2022-08-19T00:36:30;5.53;;;1.08;;
66966;SDS011;53900;51.468;-2.586;2022-08-19T06:27:27;11.65;;;2.35;;
66966;SDS011;53900;51.468;-2.586;2022-08-19T06:29:55;15.82;;;2.30;;
66966;SDS011;53900;51.468;-2.586;2022-08-19T06:32:20;9.45;;;2.30;;
66966;SDS011;53900;51.468;-2.586;2022-08-19T06:34:46;11.55;;;2.65;;
66966;SDS011;53900;51.468;-2.586;2022-08-19T06:37:12;12.95;;;2.75;;
66966;SDS011;53900;51.468;-2.586;2022-08-19T06:39:38;6.68;;;2.10;;
66966;SDS011;53900;51.468;-2.586;2022-08-19T06:42:06;14.98;;;2.25;;
66966;SDS011;53900;51.468;-2.586;2022-08-19T06:44:34;11.82;;;2.22;;
66966;SDS011;53900;51.468;-2.586;2022-08-19T06:47:05;8.32;;;1.83;;
66966;SDS011;53900;51.468;-2.586;2022-08-19T06:49:32;13.15;;;2.05;;
66966;SDS011;53900;51.468;-2.586;2022-08-19T06:51:59;18.55;;;2.45;;
66966;SDS011;53900;51.468;-2.586;2022-08-19T06:54:25;10.60;;;1.92;;
66966;SDS011;53900;51.468;-2.586;2022-08-19T06:56:51;14.55;;;2.00;;
66966;SDS011;53900;51.468;-2.586;2022-08-19T06:59:18;11.80;;;2.15;;
66966;SDS011;53900;51.468;-2.586;2022-08-19T07:01:49;11.95;;;2.17;;
66966;SDS011;53900;51.468;-2.586;2022-08-19T07:04:17;18.13;;;2.20;;
66966;SDS011;53900;51.468;-2.586;2022-08-19T07:06:45;11.50;;;1.92;;
66966;SDS011;53900;51.468;-2.586;2022-08-19T07:09:14;10.75;;;2.13;;
66966;SDS011;53900;51.468;-2.586;2022-08-19T07:11:45;8.52;;;2.00;;
66966;SDS011;53900;51.468;-2.586;2022-08-19T07:14:12;11.90;;;2.00;;
66966;SDS011;53900;51.468;-2.586;2022-08-19T07:16:39;11.40;;;2.30;;
66966;SDS011;53900;51.468;-2.586;2022-08-19T07:19:05;9.20;;;2.13;;
66966;SDS011;53900;51.468;-2.586;2022-08-19T07:21:30;13.60;;;2.30;;
66966;SDS011;53900;51.468;-2.586;2022-08-19T07:23:56;8.30;;;2.20;;
66966;SDS011;53900;51.468;-2.586;2022-08-19T07:26:26;13.43;;;2.40;;
66966;SDS011;53900;51.468;-2.586;2022-08-19T07:28:54;11.25;;;2.05;;
66966;SDS011;53900;51.468;-2.586;2022-08-19T07:31:23;8.98;;;2.20;;
66966;SDS011;53900;51.468;-2.586;2022-08-19T07:33:49;8.30;;;1.75;;
66966;SDS011;53900;51.468;-2.586;2022-08-19T07:36:17;12.55;;;2.20;;
66966;SDS011;53900;51.468;-2.586;2022-08-19T07:38:45;13.68;;;2.10;;
66966;SDS011;53900;51.468;-2.586;2022-08-19T07:41:13;12.80;;;2.72;;
66966;SDS011;53900;51.468;-2.586;2022-08-19T07:43:40;14.30;;;1.95;;
66966;SDS011;53900;51.468;-2.586;2022-08-19T07:46:06;15.07;;;2.00;;
66966;SDS011;53900;51.468;-2.586;2022-08-19T07:48:32;12.10;;;2.10;;
66966;SDS011;53900;51.468;-2.586;2022-08-19T07:51:02;10.63;;;1.83;;
66966;SDS011;53900;51.468;-2.586;2022-08-19T07:53:29;14.40;;;2.33;;
66966;SDS011;53900;51.468;-2.586;2022-08-19T07:55:55;10.38;;;1.65;;
66966;SDS011;53900;51.468;-2.586;2022-08-19T07:58:26;19.25;;;2.60;;
66966;SDS011;53900;51.468;-2.586;2022-08-19T08:00:53;11.32;;;2.08;;
66966;SDS011;53900;51.468;-2.586;2022-08-19T08:03:20;13.00;;;2.08;;
66966;SDS011;53900;51.468;-2.586;2022-08-19T08:06:06;14.15;;;1.98;;
66966;SDS011;53900;51.468;-2.586;2022-08-19T08:08:51;13.52;;;2.10;;
66966;SDS011;53900;51.468;-2.586;2022-08-19T08:11:35;12.77;;;2.47;;
66966;SDS011;53900;51.468;-2.586;2022-08-19T08:14:00;19.90;;;2.60;;
66966;SDS011;53900;51.468;-2.586;2022-08-19T08:16:26;14.35;;;2.05;;
66966;SDS011;53900;51.468;-2.586;2022-08-19T08:18:54;16.70;;;2.42;;
66966;SDS011;53900;51.468;-2.586;2022-08-19T08:21:20;13.20;;;2.30;;
66966;SDS011;53900;51.468;-2.586;2022-08-19T08:23:45;15.00;;;2.22;;
66966;SDS011;53900;51.468;-2.586;2022-08-19T08:26:11;9.68;;;1.75;;
66966;SDS011;53900;51.468;-2.586;2022-08-19T08:28:39;10.50;;;2.00;;
66966;SDS011;53900;51.468;-2.586;2022-08-19T08:31:05;11.57;;;2.50;;
66966;SDS011;53900;51.468;-2.586;2022-08-19T08:33:30;7.15;;;1.85;;
66966;SDS011;53900;51.468;-2.586;2022-08-19T08:35:56;16.50;;;2.17;;
66966;SDS011;53900;51.468;-2.586;2022-08-19T08:38:22;11.98;;;2.58;;
66966;SDS011;53900;51.468;-2.586;2022-08-19T08:40:48;20.23;;;3.00;;
66966;SDS011;53900;51.468;-2.586;2022-08-19T08:43:29;11.07;;;2.10;;
66966;SDS011;53900;51.468;-2.586;2022-08-19T08:46:01;12.65;;;2.30;;
66966;SDS011;53900;51.468;-2.586;2022-08-19T08:48:37;13.80;;;2.45;;
66966;SDS011;53900;51.468;-2.586;2022-08-19T08:51:59;18.90;;;2.13;;
66966;SDS011;53900;51.468;-2.586;2022-08-19T08:54:28;15.48;;;2.22;;
66966;SDS011;53900;51.468;-2.586;2022-08-19T08:56:58;14.73;;;2.42;;
66966;SDS011;53900;51.468;-2.586;2022-08-19T09:01:57;10.40;;;1.90;;
66966;SDS011;53900;51.468;-2.586;2022-08-19T09:04:23;15.02;;;2.28;;
66966;SDS011;53900;51.468;-2.586;2022-08-19T09:06:51;16.10;;;1.98;;
66966;SDS011;53900;51.468;-2.586;2022-08-19T09:09:35;12.73;;;2.00;;
66966;SDS011;53900;51.468;-2.586;2022-08-19T09:14:55;12.93;;;2.22;;
66966;SDS011;53900;51.468;-2.586;2022-08-19T09:17:33;9.07;;;1.85;;
66966;SDS011;53900;51.468;-2.586;2022-08-19T09:20:04;10.48;;;2.15;;
66966;SDS011;53900;51.468;-2.586;2022-08-19T09:22:40;7.15;;;1.92;;
66966;SDS011;53900;51.468;-2.586;2022-08-19T09:25:10;14.52;;;2.25;;
66966;SDS011;53900;51.468;-2.586;2022-08-19T09:27:38;9.65;;;2.15;;
66966;SDS011;53900;51.468;-2.586;2022-08-19T09:30:05;14.00;;;2.53;;
66966;SDS011;53900;51.468;-2.586;2022-08-19T09:32:32;7.53;;;1.75;;
66966;SDS011;53900;51.468;-2.586;2022-08-19T09:34:58;9.70;;;2.17;;
66966;SDS011;53900;51.468;-2.586;2022-08-19T09:37:25;11.20;;;2.10;;
66966;SDS011;53900;51.468;-2.586;2022-08-19T09:39:51;7.97;;;1.73;;
66966;SDS011;53900;51.468;-2.586;2022-08-19T09:42:16;10.48;;;1.88;;
66966;SDS011;53900;51.468;-2.586;2022-08-19T09:44:42;12.32;;;2.08;;
66966;SDS011;53900;51.468;-2.586;2022-08-19T09:47:11;14.13;;;2.28;;
66966;SDS011;53900;51.468;-2.586;2022-08-19T09:49:38;9.43;;;1.85;;
66966;SDS011;53900;51.468;-2.586;2022-08-19T09:52:04;10.48;;;2.13;;
66966;SDS011;53900;51.468;-2.586;2022-08-19T09:54:31;15.98;;;2.63;;
66966;SDS011;53900;51.468;-2.586;2022-08-19T09:56:58;9.82;;;2.20;;
66966;SDS011;53900;51.468;-2.586;2022-08-19T09:59:25;15.23;;;2.47;;
66966;SDS011;53900;51.468;-2.586;2022-08-19T10:01:51;10.50;;;2.55;;
66966;SDS011;53900;51.468;-2.586;2022-08-19T10:04:16;9.80;;;2.40;;
66966;SDS011;53900;51.468;-2.586;2022-08-19T10:06:42;11.55;;;2.10;;
66966;SDS011;53900;51.468;-2.586;2022-08-19T10:09:08;9.93;;;2.25;;
66966;SDS011;53900;51.468;-2.586;2022-08-19T10:11:35;10.43;;;2.30;;
66966;SDS011;53900;51.468;-2.586;2022-08-19T10:14:03;10.98;;;2.22;;
66966;SDS011;53900;51.468;-2.586;2022-08-19T10:16:30;15.85;;;2.60;;
66966;SDS011;53900;51.468;-2.586;2022-08-19T10:18:56;11.55;;;2.88;;
66966;SDS011;53900;51.468;-2.586;2022-08-19T10:21:27;9.90;;;2.35;;
66966;SDS011;53900;51.468;-2.586;2022-08-19T10:23:57;10.45;;;2.50;;
66966;SDS011;53900;51.468;-2.586;2022-08-19T10:26:25;9.35;;;2.10;;
66966;SDS011;53900;51.468;-2.586;2022-08-19T10:28:53;10.45;;;2.45;;
66966;SDS011;53900;51.468;-2.586;2022-08-19T10:31:20;13.95;;;2.40;;
66966;SDS011;53900;51.468;-2.586;2022-08-19T10:33:48;9.63;;;2.50;;
66966;SDS011;53900;51.468;-2.586;2022-08-19T10:36:15;11.25;;;2.65;;
66966;SDS011;53900;51.468;-2.586;2022-08-19T10:38:43;8.77;;;3.08;;
66966;SDS011;53900;51.468;-2.586;2022-08-19T10:41:20;18.17;;;2.40;;
66966;SDS011;53900;51.468;-2.586;2022-08-19T10:43:50;11.07;;;2.25;;
66966;SDS011;53900;51.468;-2.586;2022-08-19T10:46:17;14.02;;;2.40;;
66966;SDS011;53900;51.468;-2.586;2022-08-19T10:48:43;14.77;;;2.50;;
66966;SDS011;53900;51.468;-2.586;2022-08-19T10:51:10;13.13;;;2.75;;
66966;SDS011;53900;51.468;-2.586;2022-08-19T10:54:14;8.00;;;2.10;;
66966;SDS011;53900;51.468;-2.586;2022-08-19T10:56:40;11.32;;;2.40;;
66966;SDS011;53900;51.468;-2.586;2022-08-19T10:59:24;10.07;;;2.35;;
66966;SDS011;53900;51.468;-2.586;2022-08-19T11:01:52;11.07;;;2.80;;
66966;SDS011;53900;51.468;-2.586;2022-08-19T11:04:19;11.88;;;2.33;;
66966;SDS011;53900;51.468;-2.586;2022-08-19T11:06:45;14.85;;;2.53;;
66966;SDS011;53900;51.468;-2.586;2022-08-19T11:09:13;9.82;;;2.53;;
66966;SDS011;53900;51.468;-2.586;2022-08-19T11:11:40;13.90;;;2.50;;
66966;SDS011;53900;51.468;-2.586;2022-08-19T11:14:07;15.75;;;2.25;;
66966;SDS011;53900;51.468;-2.586;2022-08-19T11:16:36;16.35;;;2.83;;
66966;SDS011;53900;51.468;-2.586;2022-08-19T11:19:03;14.75;;;2.45;;
66966;SDS011;53900;51.468;-2.586;2022-08-19T11:21:31;12.75;;;2.70;;
66966;SDS011;53900;51.468;-2.586;2022-08-19T11:23:59;13.97;;;2.77;;
66966;SDS011;53900;51.468;-2.586;2022-08-19T11:26:27;14.18;;;2.65;;
66966;SDS011;53900;51.468;-2.586;2022-08-19T11:28:54;12.80;;;2.85;;
66966;SDS011;53900;51.468;-2.586;2022-08-19T11:31:21;8.88;;;2.53;;
66966;SDS011;53900;51.468;-2.586;2022-08-19T11:33:48;12.13;;;2.55;;
66966;SDS011;53900;51.468;-2.586;2022-08-19T11:36:16;14.10;;;2.47;;
66966;SDS011;53900;51.468;-2.586;2022-08-19T11:38:42;13.07;;;2.72;;
66966;SDS011;53900;51.468;-2.586;2022-08-19T11:41:09;13.85;;;2.45;;
66966;SDS011;53900;51.468;-2.586;2022-08-19T11:43:35;8.77;;;2.47;;
66966;SDS011;53900;51.468;-2.586;2022-08-19T11:46:09;8.48;;;2.17;;
66966;SDS011;53900;51.468;-2.586;2022-08-19T11:48:37;16.50;;;2.63;;
66966;SDS011;53900;51.468;-2.586;2022-08-19T11:51:04;12.55;;;2.25;;
66966;SDS011;53900;51.468;-2.586;2022-08-19T11:53:34;10.52;;;2.30;;
66966;SDS011;53900;51.468;-2.586;2022-08-19T11:56:01;12.07;;;2.45;;
66966;SDS011;53900;51.468;-2.586;2022-08-19T11:58:27;14.13;;;2.60;;
66966;SDS011;53900;51.468;-2.586;2022-08-19T12:00:54;11.63;;;2.58;;
66966;SDS011;53900;51.468;-2.586;2022-08-19T12:03:19;11.00;;;2.80;;
66966;SDS011;53900;51.468;-2.586;2022-08-19T12:05:45;12.80;;;2.53;;
66966;SDS011;53900;51.468;-2.586;2022-08-19T12:08:11;10.13;;;2.38;;
66966;SDS011;53900;51.468;-2.586;2022-08-19T12:10:37;16.35;;;2.40;;
66966;SDS011;53900;51.468;-2.586;2022-08-19T12:13:03;12.65;;;2.90;;
66966;SDS011;53900;51.468;-2.586;2022-08-19T12:15:29;11.38;;;2.65;;
66966;SDS011;53900;51.468;-2.586;2022-08-19T12:17:55;11.00;;;2.28;;
66966;SDS011;53900;51.468;-2.586;2022-08-19T12:20:22;10.13;;;2.38;;
66966;SDS011;53900;51.468;-2.586;2022-08-19T12:22:48;16.13;;;2.40;;
66966;SDS011;53900;51.468;-2.586;2022-08-19T12:25:15;14.45;;;2.55;;
66966;SDS011;53900;51.468;-2.586;2022-08-19T12:27:40;12.00;;;2.40;;
66966;SDS011;53900;51.468;-2.586;2022-08-19T12:30:07;10.15;;;2.42;;
66966;SDS011;53900;51.468;-2.586;2022-08-19T12:32:34;13.25;;;2.20;;
66966;SDS011;53900;51.468;-2.586;2022-08-19T12:34:59;12.25;;;2.40;;
66966;SDS011;53900;51.468;-2.586;2022-08-19T12:37:25;14.73;;;2.45;;
66966;SDS011;53900;51.468;-2.586;2022-08-19T12:39:50;17.35;;;2.75;;
66966;SDS011;53900;51.468;-2.586;2022-08-19T12:42:16;13.40;;;2.63;;
66966;SDS011;53900;51.468;-2.586;2022-08-19T12:44:42;9.38;;;1.90;;
66966;SDS011;53900;51.468;-2.586;2022-08-19T12:47:08;11.27;;;2.33;;
66966;SDS011;53900;51.468;-2.586;2022-08-19T12:49:35;11.98;;;2.22;;
66966;SDS011;53900;51.468;-2.586;2022-08-19T12:52:07;12.13;;;2.42;;
66966;SDS011;53900;51.468;-2.586;2022-08-19T12:54:33;12.48;;;2.13;;
66966;SDS011;53900;51.468;-2.586;2022-08-19T12:57:04;11.40;;;2.15;;
66966;SDS011;53900;51.468;-2.586;2022-08-19T12:59:31;13.77;;;2.75;;
66966;SDS011;53900;51.468;-2.586;2022-08-19T13:01:56;9.70;;;2.28;;
66966;SDS011;53900;51.468;-2.586;2022-08-19T13:04:22;12.93;;;2.00;;
66966;SDS011;53900;51.468;-2.586;2022-08-19T13:06:47;52.28;;;5.05;;
66966;SDS011;53900;51.468;-2.586;2022-08-19T13:09:13;6.05;;;1.65;;
66966;SDS011;53900;51.468;-2.586;2022-08-19T13:11:38;17.55;;;2.50;;
66966;SDS011;53900;51.468;-2.586;2022-08-19T13:14:04;11.13;;;2.13;;
66966;SDS011;53900;51.468;-2.586;2022-08-19T13:16:29;11.75;;;2.03;;
66966;SDS011;53900;51.468;-2.586;2022-08-19T13:18:55;10.73;;;2.50;;
66966;SDS011;53900;51.468;-2.586;2022-08-19T13:21:23;16.52;;;2.70;;
66966;SDS011;53900;51.468;-2.586;2022-08-19T13:23:50;17.38;;;2.67;;
66966;SDS011;53900;51.468;-2.586;2022-08-19T13:26:17;9.23;;;2.10;;
66966;SDS011;53900;51.468;-2.586;2022-08-19T13:28:43;13.85;;;2.38;;
66966;SDS011;53900;51.468;-2.586;2022-08-19T13:31:28;11.70;;;2.35;;
66966;SDS011;53900;51.468;-2.586;2022-08-19T13:34:15;12.50;;;2.33;;
66966;SDS011;53900;51.468;-2.586;2022-08-19T13:36:41;11.93;;;1.92;;
66966;SDS011;53900;51.468;-2.586;2022-08-19T13:39:07;9.93;;;2.17;;
66966;SDS011;53900;51.468;-2.586;2022-08-19T13:41:33;9.35;;;2.10;;
66966;SDS011;53900;51.468;-2.586;2022-08-19T13:43:59;8.35;;;1.80;;
66966;SDS011;53900;51.468;-2.586;2022-08-19T13:46:25;11.18;;;1.90;;
66966;SDS011;53900;51.468;-2.586;2022-08-19T13:48:52;11.15;;;2.00;;
66966;SDS011;53900;51.468;-2.586;2022-08-19T13:51:17;9.02;;;1.63;;
66966;SDS011;53900;51.468;-2.586;2022-08-19T13:53:44;8.35;;;1.80;;
66966;SDS011;53900;51.468;-2.586;2022-08-19T13:56:11;7.47;;;1.50;;
66966;SDS011;53900;51.468;-2.586;2022-08-19T13:58:38;7.72;;;1.50;;
66966;SDS011;53900;51.468;-2.586;2022-08-19T14:01:04;6.60;;;1.48;;
66966;SDS011;53900;51.468;-2.586;2022-08-19T14:03:31;6.40;;;1.50;;
66966;SDS011;53900;51.468;-2.586;2022-08-19T14:05:57;5.50;;;1.60;;
66966;SDS011;53900;51.468;-2.586;2022-08-19T14:08:23;7.75;;;1.92;;
66966;SDS011;53900;51.468;-2.586;2022-08-19T14:10:49;7.18;;;1.65;;
66966;SDS011;53900;51.468;-2.586;2022-08-19T14:13:15;7.07;;;1.40;;
66966;SDS011;53900;51.468;-2.586;2022-08-19T14:15:43;8.75;;;1.60;;
66966;SDS011;53900;51.468;-2.586;2022-08-19T14:18:08;6.65;;;1.50;;
66966;SDS011;53900;51.468;-2.586;2022-08-19T14:20:34;6.00;;;1.50;;
66966;SDS011;53900;51.468;-2.586;2022-08-19T14:23:00;5.47;;;1.40;;
66966;SDS011;53900;51.468;-2.586;2022-08-19T14:25:26;8.93;;;1.52;;
66966;SDS011;53900;51.468;-2.586;2022-08-19T14:27:53;7.32;;;1.83;;
66966;SDS011;53900;51.468;-2.586;2022-08-19T14:30:23;6.05;;;1.50;;
66966;SDS011;53900;51.468;-2.586;2022-08-19T14:32:53;5.60;;;1.58;;
66966;SDS011;53900;51.468;-2.586;2022-08-19T14:35:20;12.23;;;1.40;;
66966;SDS011;53900;51.468;-2.586;2022-08-19T14:37:47;5.88;;;1.63;;
66966;SDS011;53900;51.468;-2.586;2022-08-19T14:40:13;6.22;;;1.38;;
66966;SDS011;53900;51.468;-2.586;2022-08-19T14:42:40;6.22;;;1.50;;
66966;SDS011;53900;51.468;-2.586;2022-08-19T14:45:06;7.72;;;1.77;;
66966;SDS011;53900;51.468;-2.586;2022-08-19T14:47:32;3.97;;;1.30;;
66966;SDS011;53900;51.468;-2.586;2022-08-19T14:49:57;4.57;;;1.40;;
66966;SDS011;53900;51.468;-2.586;2022-08-19T14:52:23;4.57;;;1.00;;
66966;SDS011;53900;51.468;-2.586;2022-08-19T14:54:48;5.65;;;1.30;;
66966;SDS011;53900;51.468;-2.586;2022-08-19T14:57:14;1.75;;;0.82;;
66966;SDS011;53900;51.468;-2.586;2022-08-19T14:59:41;2.67;;;1.00;;
66966;SDS011;53900;51.468;-2.586;2022-08-19T15:02:07;2.13;;;0.75;;
66966;SDS011;53900;51.468;-2.586;2022-08-19T15:04:32;3.78;;;1.15;;
66966;SDS011;53900;51.468;-2.586;2022-08-19T15:06:58;2.75;;;1.10;;
66966;SDS011;53900;51.468;-2.586;2022-08-19T15:09:23;3.05;;;1.33;;
66966;SDS011;53900;51.468;-2.586;2022-08-19T15:11:48;4.55;;;1.17;;
66966;SDS011;53900;51.468;-2.586;2022-08-19T15:14:14;4.85;;;1.30;;
66966;SDS011;53900;51.468;-2.586;2022-08-19T15:16:41;10.75;;;1.98;;
66966;SDS011;53900;51.468;-2.586;2022-08-19T15:19:07;3.97;;;1.45;;
66966;SDS011;53900;51.468;-2.586;2022-08-19T15:21:33;4.97;;;1.35;;
66966;SDS011;53900;51.468;-2.586;2022-08-19T15:23:59;6.25;;;1.30;;
66966;SDS011;53900;51.468;-2.586;2022-08-19T15:26:26;3.22;;;1.45;;
66966;SDS011;53900;51.468;-2.586;2022-08-19T15:28:56;8.27;;;1.45;;
66966;SDS011;53900;51.468;-2.586;2022-08-19T15:31:22;4.32;;;1.23;;
66966;SDS011;53900;51.468;-2.586;2022-08-19T15:33:48;4.75;;;1.38;;
66966;SDS011;53900;51.468;-2.586;2022-08-19T15:36:14;3.97;;;1.23;;
66966;SDS011;53900;51.468;-2.586;2022-08-19T15:38:40;3.80;;;1.13;;
66966;SDS011;53900;51.468;-2.586;2022-08-19T15:41:15;7.03;;;1.33;;
66966;SDS011;53900;51.468;-2.586;2022-08-19T15:43:52;3.67;;;1.13;;
66966;SDS011;53900;51.468;-2.586;2022-08-19T15:46:22;4.10;;;1.27;;
66966;SDS011;53900;51.468;-2.586;2022-08-19T15:48:49;3.63;;;1.00;;
66966;SDS011;53900;51.468;-2.586;2022-08-19T15:51:15;5.53;;;1.42;;
66966;SDS011;53900;51.468;-2.586;2022-08-19T15:53:41;4.30;;;1.20;;
66966;SDS011;53900;51.468;-2.586;2022-08-19T15:56:07;6.97;;;1.50;;
66966;SDS011;53900;51.468;-2.586;2022-08-19T15:58:33;6.82;;;1.30;;
66966;SDS011;53900;51.468;-2.586;2022-08-19T16:01:17;4.43;;;1.40;;
66966;SDS011;53900;51.468;-2.586;2022-08-19T16:04:01;6.72;;;1.27;;
66966;SDS011;53900;51.468;-2.586;2022-08-19T16:06:46;6.20;;;1.48;;
66966;SDS011;53900;51.468;-2.586;2022-08-19T16:09:16;7.40;;;1.40;;
66966;SDS011;53900;51.468;-2.586;2022-08-19T16:11:42;7.15;;;1.30;;
66966;SDS011;53900;51.468;-2.586;2022-08-19T16:14:09;9.27;;;1.70;;
66966;SDS011;53900;51.468;-2.586;2022-08-19T16:16:35;6.18;;;1.40;;
66966;SDS011;53900;51.468;-2.586;2022-08-19T16:19:02;9.23;;;1.38;;
66966;SDS011;53900;51.468;-2.586;2022-08-19T16:21:33;8.57;;;2.25;;
66966;SDS011;53900;51.468;-2.586;2022-08-19T16:24:00;6.30;;;1.30;;
66966;SDS011;53900;51.468;-2.586;2022-08-19T16:26:27;3.80;;;1.30;;
66966;SDS011;53900;51.468;-2.586;2022-08-19T16:28:54;5.15;;;1.10;;
66966;SDS011;53900;51.468;-2.586;2022-08-19T16:31:22;5.63;;;1.35;;
66966;SDS011;53900;51.468;-2.586;2022-08-19T16:33:48;4.13;;;1.20;;
66966;SDS011;53900;51.468;-2.586;2022-08-19T16:36:13;3.80;;;1.50;;
66966;SDS011;53900;51.468;-2.586;2022-08-19T16:38:39;5.32;;;1.30;;
66966;SDS011;53900;51.468;-2.586;2022-08-19T16:41:04;3.85;;;1.00;;
66966;SDS011;53900;51.468;-2.586;2022-08-19T16:43:30;7.00;;;1.63;;
66966;SDS011;53900;51.468;-2.586;2022-08-19T16:45:56;4.63;;;1.50;;
66966;SDS011;53900;51.468;-2.586;2022-08-19T16:48:23;5.07;;;1.25;;
66966;SDS011;53900;51.468;-2.586;2022-08-19T16:50:51;7.00;;;1.45;;
66966;SDS011;53900;51.468;-2.586;2022-08-19T16:53:18;5.35;;;1.50;;
66966;SDS011;53900;51.468;-2.586;2022-08-19T16:55:47;10.32;;;1.98;;
66966;SDS011;53900;51.468;-2.586;2022-08-19T16:58:18;6.72;;;1.48;;
66966;SDS011;53900;51.468;-2.586;2022-08-19T17:00:44;5.95;;;1.40;;
66966;SDS011;53900;51.468;-2.586;2022-08-19T17:03:10;6.35;;;1.27;;
66966;SDS011;53900;51.468;-2.586;2022-08-19T17:05:43;10.05;;;2.40;;
66966;SDS011;53900;51.468;-2.586;2022-08-19T17:08:10;4.85;;;1.40;;
66966;SDS011;53900;51.468;-2.586;2022-08-19T17:10:35;10.45;;;1.50;;
66966;SDS011;53900;51.468;-2.586;2022-08-19T17:13:02;6.70;;;1.48;;
66966;SDS011;53900;51.468;-2.586;2022-08-19T17:15:28;11.77;;;1.70;;
66966;SDS011;53900;51.468;-2.586;2022-08-19T17:17:58;6.32;;;1.27;;
66966;SDS011;53900;51.468;-2.586;2022-08-19T17:20:24;4.47;;;0.93;;
66966;SDS011;53900;51.468;-2.586;2022-08-19T17:22:49;5.32;;;1.38;;
66966;SDS011;53900;51.468;-2.586;2022-08-19T17:25:15;6.05;;;1.40;;
66966;SDS011;53900;51.468;-2.586;2022-08-19T17:27:40;6.88;;;0.88;;
66966;SDS011;53900;51.468;-2.586;2022-08-19T17:30:06;3.08;;;1.20;;
66966;SDS011;53900;51.468;-2.586;2022-08-19T17:32:32;6.97;;;1.63;;
66966;SDS011;53900;51.468;-2.586;2022-08-19T17:34:58;4.43;;;1.63;;
66966;SDS011;53900;51.468;-2.586;2022-08-19T17:37:24;8.95;;;1.52;;
66966;SDS011;53900;51.468;-2.586;2022-08-19T17:39:50;5.45;;;1.55;;
66966;SDS011;53900;51.468;-2.586;2022-08-19T17:42:15;5.28;;;1.30;;
66966;SDS011;53900;51.468;-2.586;2022-08-19T17:44:41;3.30;;;1.17;;
66966;SDS011;53900;51.468;-2.586;2022-08-19T17:47:06;6.68;;;1.52;;
66966;SDS011;53900;51.468;-2.586;2022-08-19T17:49:32;7.13;;;1.23;;
66966;SDS011;53900;51.468;-2.586;2022-08-19T17:51:58;6.85;;;1.52;;
66966;SDS011;53900;51.468;-2.586;2022-08-19T17:54:23;4.00;;;1.35;;
66966;SDS011;53900;51.468;-2.586;2022-08-19T17:56:49;7.55;;;1.63;;
66966;SDS011;53900;51.468;-2.586;2022-08-19T17:59:15;7.88;;;1.50;;
66966;SDS011;53900;51.468;-2.586;2022-08-19T18:01:42;9.23;;;1.95;;
66966;SDS011;53900;51.468;-2.586;2022-08-19T18:04:08;6.78;;;1.45;;
66966;SDS011;53900;51.468;-2.586;2022-08-19T18:06:34;6.28;;;1.50;;
66966;SDS011;53900;51.468;-2.586;2022-08-19T18:09:01;6.72;;;1.27;;
66966;SDS011;53900;51.468;-2.586;2022-08-19T18:11:28;7.72;;;1.45;;
66966;SDS011;53900;51.468;-2.586;2022-08-19T18:13:54;6.53;;;1.70;;
66966;SDS011;53900;51.468;-2.586;2022-08-19T18:16:20;6.57;;;1.30;;
66966;SDS011;53900;51.468;-2.586;2022-08-19T18:18:46;5.50;;;1.70;;
66966;SDS011;53900;51.468;-2.586;2022-08-19T18:21:11;4.68;;;1.40;;
66966;SDS011;53900;51.468;-2.586;2022-08-19T18:23:37;8.00;;;1.30;;
66966;SDS011;53900;51.468;-2.586;2022-08-19T18:26:02;7.47;;;1.50;;
66966;SDS011;53900;51.468;-2.586;2022-08-19T18:28:28;7.75;;;1.83;;
66966;SDS011;53900;51.468;-2.586;2022-08-19T18:30:53;7.35;;;1.40;;
66966;SDS011;53900;51.468;-2.586;2022-08-19T18:33:20;5.45;;;1.45;;
66966;SDS011;53900;51.468;-2.586;2022-08-19T18:35:46;9.25;;;1.58;;
66966;SDS011;53900;51.468;-2.586;2022-08-19T18:38:13;6.47;;;1.35;;
66966;SDS011;53900;51.468;-2.586;2022-08-19T18:40:59;6.95;;;1.67;;
66966;SDS011;53900;51.468;-2.586;2022-08-19T18:43:43;8.73;;;1.88;;
66966;SDS011;53900;51.468;-2.586;2022-08-19T18:46:27;3.95;;;1.45;;
66966;SDS011;53900;51.468;-2.586;2022-08-19T18:49:13;12.38;;;1.80;;
66966;SDS011;53900;51.468;-2.586;2022-08-19T18:51:41;13.40;;;1.80;;
66966;SDS011;53900;51.468;-2.586;2022-08-19T18:54:07;6.20;;;1.40;;
66966;SDS011;53900;51.468;-2.586;2022-08-19T18:56:32;5.18;;;1.40;;
66966;SDS011;53900;51.468;-2.586;2022-08-19T18:58:59;8.63;;;1.40;;
66966;SDS011;53900;51.468;-2.586;2022-08-19T19:01:29;8.57;;;1.40;;
66966;SDS011;53900;51.468;-2.586;2022-08-19T19:03:58;10.18;;;1.40;;
66966;SDS011;53900;51.468;-2.586;2022-08-19T19:06:27;5.32;;;1.38;;
66966;SDS011;53900;51.468;-2.586;2022-08-19T19:08:56;4.85;;;1.00;;
66966;SDS011;53900;51.468;-2.586;2022-08-19T19:11:27;6.43;;;1.65;;
66966;SDS011;53900;51.468;-2.586;2022-08-19T19:13:58;7.38;;;1.40;;
66966;SDS011;53900;51.468;-2.586;2022-08-19T19:16:28;5.85;;;1.20;;
66966;SDS011;53900;51.468;-2.586;2022-08-19T19:18:54;3.30;;;1.00;;
66966;SDS011;53900;51.468;-2.586;2022-08-19T19:21:20;7.47;;;1.30;;
66966;SDS011;53900;51.468;-2.586;2022-08-19T19:26:14;7.43;;;1.27;;
66966;SDS011;53900;51.468;-2.586;2022-08-19T19:28:40;5.55;;;1.60;;
66966;SDS011;53900;51.468;-2.586;2022-08-19T19:31:13;6.30;;;1.30;;
66966;SDS011;53900;51.468;-2.586;2022-08-19T19:33:41;5.43;;;1.50;;
66966;SDS011;53900;51.468;-2.586;2022-08-19T19:36:06;8.35;;;1.40;;
66966;SDS011;53900;51.468;-2.586;2022-08-19T19:38:32;11.18;;;1.40;;
66966;SDS011;53900;51.468;-2.586;2022-08-19T19:40:58;8.75;;;1.73;;
66966;SDS011;53900;51.468;-2.586;2022-08-19T19:43:23;11.30;;;2.35;;
66966;SDS011;53900;51.468;-2.586;2022-08-19T19:45:49;6.03;;;1.25;;
66966;SDS011;53900;51.468;-2.586;2022-08-19T19:48:15;4.57;;;1.42;;
66966;SDS011;53900;51.468;-2.586;2022-08-19T19:50:41;7.43;;;1.63;;
66966;SDS011;53900;51.468;-2.586;2022-08-19T19:53:08;9.02;;;1.73;;
66966;SDS011;53900;51.468;-2.586;2022-08-19T19:55:33;8.75;;;1.67;;
66966;SDS011;53900;51.468;-2.586;2022-08-19T19:58:00;9.57;;;1.50;;
66966;SDS011;53900;51.468;-2.586;2022-08-19T20:00:27;10.60;;;1.60;;
66966;SDS011;53900;51.468;-2.586;2022-08-19T20:02:52;6.00;;;1.40;;
66966;SDS011;53900;51.468;-2.586;2022-08-19T20:05:20;7.78;;;1.55;;
66966;SDS011;53900;51.468;-2.586;2022-08-19T20:07:46;7.10;;;2.10;;
66966;SDS011;53900;51.468;-2.586;2022-08-19T20:10:30;8.32;;;1.55;;
66966;SDS011;53900;51.468;-2.586;2022-08-19T20:12:56;7.32;;;1.33;;
66966;SDS011;53900;51.468;-2.586;2022-08-19T20:15:22;5.10;;;1.20;;
66966;SDS011;53900;51.468;-2.586;2022-08-19T20:17:48;6.00;;;1.40;;
66966;SDS011;53900;51.468;-2.586;2022-08-19T20:20:15;6.05;;;1.50;;
66966;SDS011;53900;51.468;-2.586;2022-08-19T20:22:42;8.95;;;1.63;;
66966;SDS011;53900;51.468;-2.586;2022-08-19T20:25:08;7.95;;;1.70;;
66966;SDS011;53900;51.468;-2.586;2022-08-19T20:27:38;15.50;;;1.88;;
66966;SDS011;53900;51.468;-2.586;2022-08-19T20:30:05;5.20;;;1.13;;